ZYTX/SHE METAR and TAF weather

Enter ICAO airport designator
Station Type Date Time Source
ZYTX METAR 2020/11/27 15:00 UTC NOAA

ZYTX 271500Z 22003MPS CAVOK M09/M15 Q1034 NOSIG


Station Type Date Time Source
ZYTX Decoded METAR 2020/11/27 15:00 UTC NOAA

Shenyang / Taokian, China (ZYTX) 41-48N 123-24E
Nov 27, 2020 - 10:00 AM EST / 2020.11.27 1500 UTC
Wind: from the SW (220 degrees) at 7 MPH (6 KT):0
Visibility: greater than 7 mile(s):0
Temperature: 15 F (-9 C)
Windchill: 5 F (-15 C):1
Dew Point: 5 F (-15 C)
Relative Humidity: 61%
Pressure (altimeter): 30.53 in. Hg (1034 hPa)
ob: ZYTX 271500Z 22003MPS CAVOK M09/M15 Q1034 NOSIG
cycle: 15

Station Type Date Time Source
ZYTX TAF 2020/11/27 12:03 UTC NOAA

TAF ZYTX 270900Z 2712/2812 32004MPS CAVOK TXM03/2806Z TNM09/2722Z

Example: see airport list